Time;durP1;ratioP1;P1;durP2;ratioP2;P2;SDS_P1;SDS_P2;PMS_P1;PMS_P2;Temp;Humidity;BMP_temperature;BMP_pressure;BME280_temperature;BME280_humidity;BME280_pressure;Samples;Min_cycle;Max_cycle;Signal;HPM_P1;HPM_P2
2024/02/28 00:00:46;;;;;;;25.37;15.97;;;4.30;99.90;;;;;;5108264;28;20288;-78
2024/02/28 00:03:13;;;;;;;28.17;17.93;;;4.30;99.90;;;;;;5102291;28;20266;-79
2024/02/28 00:05:40;;;;;;;28.53;17.70;;;4.20;99.90;;;;;;5102277;28;20236;-78
2024/02/28 00:08:07;;;;;;;30.93;18.33;;;4.10;99.90;;;;;;5103043;28;20288;-79
2024/02/28 00:10:33;;;;;;;26.57;17.67;;;4.00;99.90;;;;;;5105893;28;20292;-79
2024/02/28 00:13:02;;;;;;;28.30;18.10;;;4.00;99.90;;;;;;5102814;28;20281;-79
2024/02/28 00:15:28;;;;;;;29.87;17.73;;;3.90;99.90;;;;;;5098900;28;20206;-78
2024/02/28 00:17:56;;;;;;;28.60;17.70;;;3.80;99.90;;;;;;5099385;28;20249;-79
2024/02/28 00:20:27;;;;;;;26.97;16.93;;;3.80;1.00;;;;;;5102325;28;20229;-78
2024/02/28 00:22:54;;;;;;;27.93;16.67;;;3.60;1.00;;;;;;5102188;28;20663;-78
2024/02/28 00:25:20;;;;;;;27.50;17.20;;;3.60;1.00;;;;;;5100401;28;20288;-78
2024/02/28 00:27:47;;;;;;;27.67;17.73;;;3.50;1.00;;;;;;5099517;28;20265;-78
2024/02/28 00:30:16;;;;;;;27.93;16.77;;;3.40;1.00;;;;;;5102020;28;20223;-79
2024/02/28 00:32:42;;;;;;;29.03;19.07;;;3.30;1.00;;;;;;5101632;28;20206;-78
2024/02/28 00:35:09;;;;;;;28.47;16.57;;;3.30;1.00;;;;;;5102377;28;20193;-78
2024/02/28 00:37:36;;;;;;;30.23;17.43;;;3.20;1.00;;;;;;5101629;28;20759;-78
2024/02/28 00:40:04;;;;;;;29.30;17.60;;;3.20;1.00;;;;;;5102967;28;20328;-78
2024/02/28 00:42:30;;;;;;;28.23;17.07;;;3.20;1.00;;;;;;5102901;28;20226;-79
2024/02/28 00:44:57;;;;;;;30.57;17.37;;;3.30;1.00;;;;;;5102296;28;20256;-78
2024/02/28 00:47:26;;;;;;;28.67;17.90;;;3.40;1.00;;;;;;5102408;28;20203;-78
2024/02/28 00:49:53;;;;;;;28.60;16.90;;;3.40;1.00;;;;;;5104643;28;20267;-79
2024/02/28 00:52:20;;;;;;;26.77;16.50;;;3.30;1.00;;;;;;5102223;28;20193;-78
2024/02/28 00:54:46;;;;;;;27.90;17.07;;;3.20;1.00;;;;;;5101274;28;20205;-79
2024/02/28 00:57:13;;;;;;;28.57;17.30;;;3.20;6.20;;;;;;5103241;28;20274;-79
2024/02/28 00:59:40;;;;;;;29.03;16.50;;;3.20;54.00;;;;;;5102232;28;20257;-78
2024/02/28 01:02:07;;;;;;;29.73;18.33;;;3.10;80.80;;;;;;5102953;28;20209;-79
2024/02/28 01:04:35;;;;;;;31.00;17.70;;;3.00;99.90;;;;;;5101475;28;20472;-78
2024/02/28 01:07:02;;;;;;;30.73;18.43;;;2.90;99.90;;;;;;5102594;28;20652;-79
2024/02/28 01:09:29;;;;;;;29.87;17.07;;;2.90;99.90;;;;;;5105215;28;20325;-78
2024/02/28 01:11:55;;;;;;;32.10;18.90;;;2.90;99.90;;;;;;5103865;28;20202;-78
2024/02/28 01:14:22;;;;;;;29.93;17.80;;;2.80;99.90;;;;;;5100796;28;20229;-79
2024/02/28 01:16:49;;;;;;;30.60;18.27;;;2.70;99.90;;;;;;5099359;28;20256;-78
2024/02/28 01:19:17;;;;;;;30.20;18.30;;;2.70;99.90;;;;;;5102561;28;20713;-78
2024/02/28 01:21:45;;;;;;;29.37;18.63;;;2.80;99.90;;;;;;5102743;28;20204;-79
2024/02/28 01:24:12;;;;;;;28.17;17.30;;;2.70;99.90;;;;;;5102691;28;20261;-78
2024/02/28 01:26:39;;;;;;;30.43;17.43;;;2.60;99.90;;;;;;5107227;28;20197;-78
2024/02/28 01:29:05;;;;;;;30.37;18.37;;;2.50;99.90;;;;;;5106341;28;20217;-78
2024/02/28 01:31:32;;;;;;;31.03;18.33;;;2.50;1.00;;;;;;5105425;28;20233;-78
2024/02/28 01:33:59;;;;;;;31.90;18.00;;;2.50;1.00;;;;;;5104125;28;20284;-78
2024/02/28 01:36:26;;;;;;;32.27;18.70;;;2.60;1.00;;;;;;5107577;28;20664;-79
2024/02/28 01:38:54;;;;;;;33.47;18.13;;;2.60;1.00;;;;;;5106152;28;20255;-78
2024/02/28 01:41:21;;;;;;;32.07;18.57;;;2.50;1.00;;;;;;5105922;28;20211;-79
2024/02/28 01:43:48;;;;;;;32.50;18.07;;;2.40;1.00;;;;;;5105822;28;20720;-79
2024/02/28 01:46:23;;;;;;;36.20;20.00;;;2.40;1.00;;;;;;5108272;28;20283;-79
2024/02/28 01:48:50;;;;;;;32.73;19.53;;;2.30;1.00;;;;;;5109715;28;20287;-78
2024/02/28 01:51:17;;;;;;;34.27;19.93;;;2.40;1.00;;;;;;5111067;28;20193;-78
2024/02/28 01:53:45;;;;;;;36.73;20.07;;;2.40;1.00;;;;;;5105442;28;20193;-78
2024/02/28 01:56:16;;;;;;;32.97;19.53;;;2.40;1.00;;;;;;5110052;28;20202;-78
2024/02/28 01:58:46;;;;;;;35.80;18.97;;;2.40;1.00;;;;;;5108555;28;20690;-78
2024/02/28 02:01:14;;;;;;;34.97;19.70;;;2.30;1.00;;;;;;5107387;28;20644;-78
2024/02/28 02:03:41;;;;;;;33.73;19.27;;;2.40;1.00;;;;;;5107999;28;20659;-79
2024/02/28 02:06:08;;;;;;;32.93;19.30;;;2.30;1.00;;;;;;5108126;28;20711;-79
2024/02/28 02:08:35;;;;;;;34.33;19.47;;;2.30;1.00;;;;;;5109772;28;20203;-78
2024/02/28 02:11:02;;;;;;;32.83;18.73;;;2.40;1.00;;;;;;5107585;28;20285;-79
2024/02/28 02:13:30;;;;;;;33.70;19.17;;;2.40;1.00;;;;;;5108176;28;20649;-78
2024/02/28 02:15:57;;;;;;;37.30;20.37;;;2.40;1.00;;;;;;5106364;28;20719;-78
2024/02/28 02:18:24;;;;;;;35.13;19.37;;;2.50;1.00;;;;;;5102574;28;20248;-78
2024/02/28 02:20:54;;;;;;;35.63;20.53;;;2.30;1.00;;;;;;5101081;28;20256;-78
2024/02/28 02:23:22;;;;;;;36.03;20.03;;;2.30;20.40;;;;;;5100831;28;20205;-78
2024/02/28 02:25:50;;;;;;;34.47;19.60;;;2.20;58.70;;;;;;5100918;28;20285;-78
2024/02/28 02:28:17;;;;;;;35.87;18.67;;;2.30;99.90;;;;;;5100733;28;20248;-77
2024/02/28 02:30:43;;;;;;;31.33;18.57;;;2.30;99.90;;;;;;5099993;28;20214;-78
2024/02/28 02:33:10;;;;;;;37.93;21.13;;;2.30;99.90;;;;;;5110957;28;20246;-77
2024/02/28 02:35:38;;;;;;;37.87;21.73;;;2.40;99.90;;;;;;5103858;28;20197;-79
2024/02/28 02:38:05;;;;;;;34.37;18.27;;;2.30;1.00;;;;;;5104946;28;20210;-79
2024/02/28 02:40:33;;;;;;;34.03;19.50;;;2.30;1.00;;;;;;5105255;28;20261;-79
2024/02/28 02:43:00;;;;;;;35.27;19.57;;;2.30;1.00;;;;;;5106286;28;20265;-79
2024/02/28 02:45:26;;;;;;;32.73;19.23;;;2.30;1.00;;;;;;5107494;28;20268;-78
2024/02/28 02:47:53;;;;;;;33.47;19.37;;;2.40;1.00;;;;;;5109972;28;20261;-78
2024/02/28 02:50:20;;;;;;;37.10;20.30;;;2.40;1.00;;;;;;5104691;28;20221;-78
2024/02/28 02:52:47;;;;;;;35.17;18.73;;;2.40;1.00;;;;;;5106053;28;20228;-79
2024/02/28 02:55:14;;;;;;;31.20;18.20;;;2.40;1.00;;;;;;5107405;28;20314;-78
2024/02/28 02:57:43;;;;;;;35.83;19.17;;;2.30;1.00;;;;;;5106133;28;20229;-78
2024/02/28 03:00:11;;;;;;;34.87;19.07;;;2.40;1.00;;;;;;5107263;28;20225;-78
2024/02/28 03:02:39;;;;;;;35.03;19.00;;;2.40;1.00;;;;;;5105867;28;20199;-78
2024/02/28 03:05:07;;;;;;;36.60;19.47;;;2.30;1.00;;;;;;5108746;28;20216;-78
2024/02/28 03:07:34;;;;;;;33.60;18.07;;;2.20;1.00;;;;;;5106868;28;20280;-78
2024/02/28 03:10:01;;;;;;;33.97;19.73;;;2.20;1.00;;;;;;5107093;28;20648;-78
2024/02/28 03:12:28;;;;;;;35.27;19.20;;;2.20;1.00;;;;;;5108538;27;20242;-78
2024/02/28 03:14:56;;;;;;;32.57;18.20;;;2.10;1.00;;;;;;5102612;28;20204;-77
2024/02/28 03:17:23;;;;;;;36.00;19.37;;;2.10;1.00;;;;;;5097711;28;20225;-77
2024/02/28 03:19:50;;;;;;;34.43;18.43;;;2.00;1.00;;;;;;5099298;28;20218;-77
2024/02/28 03:22:17;;;;;;;35.33;18.57;;;2.00;1.00;;;;;;5099270;28;20309;-80
2024/02/28 03:24:44;;;;;;;35.67;18.67;;;1.80;1.00;;;;;;5099583;28;20289;-79
2024/02/28 03:27:11;;;;;;;34.67;18.57;;;1.60;1.00;;;;;;5098815;28;20308;-78
2024/02/28 03:29:38;;;;;;;32.93;17.63;;;1.60;1.00;;;;;;5096508;28;20249;-77
2024/02/28 03:32:07;;;;;;;35.07;17.83;;;1.50;1.00;;;;;;5102833;28;20206;-78
2024/02/28 03:34:33;;;;;;;35.20;18.60;;;1.50;85.50;;;;;;5109771;28;20280;-77
2024/02/28 03:37:00;;;;;;;34.70;19.17;;;1.20;99.90;;;;;;5096421;28;20226;-77
2024/02/28 03:39:26;;;;;;;34.83;18.10;;;1.30;99.90;;;;;;5103750;28;20315;-78
2024/02/28 03:41:53;;;;;;;34.67;18.80;;;1.30;1.00;;;;;;5102367;28;20632;-77
2024/02/28 03:44:21;;;;;;;32.40;17.53;;;1.30;1.00;;;;;;5100130;28;20663;-77
2024/02/28 03:46:48;;;;;;;33.67;18.67;;;1.20;99.90;;;;;;5103602;28;20674;-78
2024/02/28 03:49:16;;;;;;;35.17;18.43;;;1.20;1.00;;;;;;5110073;28;20225;-79
2024/02/28 03:51:43;;;;;;;34.40;17.87;;;1.20;1.00;;;;;;5105014;28;20660;-79
2024/02/28 03:54:10;;;;;;;32.77;17.40;;;1.20;1.00;;;;;;5108750;28;20289;-79
2024/02/28 03:56:37;;;;;;;34.17;17.97;;;1.00;99.90;;;;;;5108076;28;20315;-78
2024/02/28 03:59:04;;;;;;;32.57;17.20;;;0.90;1.00;;;;;;5108329;28;20221;-78
2024/02/28 04:01:31;;;;;;;31.97;16.73;;;0.90;1.00;;;;;;5110535;28;20207;-79
2024/02/28 04:03:58;;;;;;;33.10;17.87;;;0.90;1.00;;;;;;5106573;28;20296;-78
2024/02/28 04:06:26;;;;;;;32.07;17.80;;;0.70;1.00;;;;;;5110601;28;20536;-78
2024/02/28 04:08:53;;;;;;;32.30;17.63;;;0.60;1.00;;;;;;5107256;28;20265;-79
2024/02/28 04:11:20;;;;;;;32.60;17.20;;;0.70;1.00;;;;;;5107487;28;20264;-80
2024/02/28 04:13:47;;;;;;;29.97;15.60;;;0.60;1.00;;;;;;5106804;28;20491;-79
2024/02/28 04:16:14;;;;;;;31.37;15.87;;;0.40;1.00;;;;;;5099443;28;20228;-79
2024/02/28 04:18:41;;;;;;;32.90;16.70;;;0.40;1.00;;;;;;5099402;28;20280;-79
2024/02/28 04:21:07;;;;;;;33.77;16.83;;;0.50;99.90;;;;;;5102602;28;20201;-79
2024/02/28 04:23:37;;;;;;;31.80;16.73;;;0.50;54.80;;;;;;5097475;28;20323;-79
2024/02/28 04:26:04;;;;;;;35.33;17.83;;;0.30;1.00;;;;;;5101354;28;20193;-80
2024/02/28 04:28:31;;;;;;;32.67;17.13;;;0.40;99.90;;;;;;5098225;28;20680;-79
2024/02/28 04:30:58;;;;;;;34.73;18.37;;;0.40;99.90;;;;;;5103141;28;20213;-79
2024/02/28 04:33:25;;;;;;;34.37;17.43;;;0.50;99.90;;;;;;5098745;28;20204;-79
2024/02/28 04:35:52;;;;;;;31.93;17.20;;;0.40;99.90;;;;;;5100081;28;20233;-79
2024/02/28 04:38:18;;;;;;;34.10;17.83;;;0.40;99.90;;;;;;5098219;28;20213;-79
2024/02/28 04:40:47;;;;;;;34.37;17.33;;;0.30;99.90;;;;;;5099383;28;20217;-79
2024/02/28 04:43:14;;;;;;;34.37;17.83;;;0.20;99.90;;;;;;5097307;28;20205;-78
2024/02/28 04:45:41;;;;;;;32.87;16.87;;;0.10;99.90;;;;;;5105319;28;20227;-78
2024/02/28 04:48:08;;;;;;;33.93;17.47;;;0.10;1.00;;;;;;5107137;28;20205;-79
2024/02/28 04:50:35;;;;;;;32.60;16.40;;;0.00;1.00;;;;;;5104755;28;20244;-79
2024/02/28 04:53:02;;;;;;;32.97;17.10;;;0.10;1.00;;;;;;5107084;28;20261;-79
2024/02/28 04:55:29;;;;;;;37.03;18.50;;;0.10;1.00;;;;;;5109507;28;20200;-78
2024/02/28 04:57:57;;;;;;;34.70;18.30;;;0.20;1.00;;;;;;5106887;28;20209;-80
2024/02/28 05:00:24;;;;;;;32.97;16.40;;;0.20;1.00;;;;;;5111657;28;20308;-78
2024/02/28 05:02:51;;;;;;;34.10;17.53;;;0.20;1.00;;;;;;5109450;28;20204;-80
2024/02/28 05:05:17;;;;;;;33.37;17.00;;;0.40;1.00;;;;;;5111720;28;20224;-79
2024/02/28 05:07:44;;;;;;;31.50;18.83;;;0.10;57.90;;;;;;5109599;28;20283;-79
2024/02/28 05:10:11;;;;;;;30.77;18.53;;;0.00;51.70;;;;;;5113194;28;20310;-80
2024/02/28 05:12:38;;;;;;;35.27;20.73;;;0.00;99.90;;;;;;5113032;28;20239;-79
2024/02/28 05:15:07;;;;;;;32.20;17.27;;;0.00;99.90;;;;;;5103696;28;20212;-79
2024/02/28 05:17:34;;;;;;;33.87;16.90;;;0.00;99.90;;;;;;5102101;28;20214;-79
2024/02/28 05:20:01;;;;;;;34.13;17.27;;;0.10;1.00;;;;;;5102712;28;20217;-80
2024/02/28 05:22:28;;;;;;;34.30;18.43;;;-0.10;99.90;;;;;;5098880;28;20197;-79
2024/02/28 05:24:54;;;;;;;36.07;20.93;;;-0.10;1.00;;;;;;5099242;28;20261;-79
2024/02/28 05:27:21;;;;;;;34.03;20.37;;;-0.10;1.00;;;;;;5098936;28;20276;-79
2024/02/28 05:29:49;;;;;;;33.33;17.37;;;-0.20;1.00;;;;;;5098869;28;20233;-79
2024/02/28 05:32:18;;;;;;;35.27;17.17;;;-0.10;1.00;;;;;;5102190;28;20202;-80
2024/02/28 05:34:45;;;;;;;35.50;17.47;;;-0.10;1.00;;;;;;5098460;28;20209;-79
2024/02/28 05:37:12;;;;;;;33.13;17.13;;;-0.20;1.00;;;;;;5100878;28;20644;-80
2024/02/28 05:39:39;;;;;;;33.43;17.60;;;-0.30;99.90;;;;;;5097453;28;20217;-80
2024/02/28 05:42:06;;;;;;;31.60;16.83;;;-0.30;1.00;;;;;;5099071;28;20244;-80
2024/02/28 05:44:34;;;;;;;34.83;17.47;;;-0.30;1.00;;;;;;5101497;28;20233;-80
2024/02/28 05:47:01;;;;;;;34.37;17.03;;;-0.20;1.00;;;;;;5105022;28;20198;-80
2024/02/28 05:49:29;;;;;;;37.57;18.93;;;0.00;1.00;;;;;;5098244;28;20225;-79
2024/02/28 05:51:56;;;;;;;37.97;18.53;;;0.10;1.00;;;;;;5105299;28;20193;-79
2024/02/28 05:54:23;;;;;;;34.73;17.40;;;0.30;1.00;;;;;;5109756;28;20224;-80
2024/02/28 05:56:50;;;;;;;36.37;17.50;;;0.20;1.00;;;;;;5103979;28;20233;-79
2024/02/28 05:59:16;;;;;;;37.77;20.97;;;0.30;1.00;;;;;;5111215;28;20221;-80
2024/02/28 06:01:45;;;;;;;35.17;17.73;;;0.30;1.00;;;;;;5111601;28;20691;-79
2024/02/28 06:04:12;;;;;;;36.30;18.40;;;0.30;1.00;;;;;;5110295;28;20221;-80
2024/02/28 06:06:41;;;;;;;35.10;18.13;;;0.40;1.00;;;;;;5115808;28;20683;-79
2024/02/28 06:09:09;;;;;;;34.63;18.07;;;0.50;1.00;;;;;;5115584;28;20714;-80
2024/02/28 06:11:36;;;;;;;35.47;17.90;;;0.60;1.00;;;;;;5115642;28;20511;-79
2024/02/28 06:14:04;;;;;;;34.03;17.33;;;0.70;1.00;;;;;;5111372;28;20644;-80
2024/02/28 06:16:30;;;;;;;33.50;17.97;;;0.70;1.00;;;;;;5101558;28;20208;-79
2024/02/28 06:18:57;;;;;;;36.53;18.37;;;0.80;1.00;;;;;;5101380;28;20687;-79
2024/02/28 06:21:24;;;;;;;34.67;18.07;;;0.90;1.00;;;;;;5104845;28;20202;-79
2024/02/28 06:23:53;;;;;;;34.87;18.60;;;0.90;1.00;;;;;;5099883;28;20225;-80
2024/02/28 06:26:20;;;;;;;33.30;17.50;;;0.90;1.00;;;;;;5104863;28;20268;-79
2024/02/28 06:28:47;;;;;;;33.87;17.30;;;1.00;1.00;;;;;;5102411;28;20201;-79
2024/02/28 06:31:15;;;;;;;34.17;17.60;;;0.90;1.00;;;;;;5100593;28;20228;-80
2024/02/28 06:33:42;;;;;;;35.70;18.90;;;0.90;1.00;;;;;;5104029;28;20281;-80
2024/02/28 06:36:09;;;;;;;37.03;18.53;;;1.00;1.00;;;;;;5102703;28;20293;-79
2024/02/28 06:38:36;;;;;;;39.37;19.27;;;1.00;1.00;;;;;;5106935;28;20218;-79
2024/02/28 06:41:05;;;;;;;33.67;18.03;;;1.40;1.00;;;;;;5107388;28;20249;-79
2024/02/28 06:43:35;;;;;;;37.27;18.27;;;1.20;1.00;;;;;;5100797;28;20220;-80
2024/02/28 06:46:02;;;;;;;39.83;19.10;;;1.20;1.00;;;;;;5104729;28;20264;-79
2024/02/28 06:48:29;;;;;;;39.10;19.63;;;1.30;1.00;;;;;;5103207;28;20204;-80
2024/02/28 06:50:56;;;;;;;38.50;19.90;;;1.30;84.70;;;;;;5102678;28;20225;-80
2024/02/28 06:53:23;;;;;;;38.60;18.97;;;1.30;99.90;;;;;;5099655;28;20232;-78
2024/02/28 06:55:50;;;;;;;41.10;20.23;;;1.40;99.90;;;;;;5104889;28;20236;-79
2024/02/28 06:58:18;;;;;;;42.07;19.40;;;1.40;99.90;;;;;;5111340;28;20277;-80
2024/02/28 07:00:45;;;;;;;42.13;21.03;;;1.40;99.90;;;;;;5113846;28;20292;-79
2024/02/28 07:03:12;;;;;;;40.90;19.50;;;1.50;99.90;;;;;;5108724;28;20289;-79
2024/02/28 07:05:38;;;;;;;40.17;19.73;;;1.50;99.90;;;;;;5117200;28;20208;-80
2024/02/28 07:08:06;;;;;;;40.97;19.77;;;1.60;99.90;;;;;;5115880;28;20209;-79
2024/02/28 07:10:32;;;;;;;38.60;19.20;;;1.60;99.90;;;;;;5116650;28;20752;-79
2024/02/28 07:12:59;;;;;;;40.00;19.90;;;1.80;99.90;;;;;;5115355;28;20264;-80
2024/02/28 07:15:27;;;;;;;39.00;18.67;;;1.70;99.90;;;;;;5115821;28;20243;-80
2024/02/28 07:17:54;;;;;;;39.23;19.53;;;1.80;99.90;;;;;;5104135;28;20292;-79
2024/02/28 07:20:21;;;;;;;40.77;19.93;;;1.90;99.90;;;;;;5110950;28;20231;-77
2024/02/28 07:22:48;;;;;;;38.07;19.33;;;1.90;99.90;;;;;;5101189;28;20237;-78
2024/02/28 07:25:15;;;;;;;39.17;19.83;;;2.00;1.00;;;;;;5096923;28;20204;-78
2024/02/28 07:27:42;;;;;;;41.90;20.57;;;2.00;1.00;;;;;;5098646;28;20621;-77
2024/02/28 07:30:09;;;;;;;40.50;19.70;;;2.00;1.00;;;;;;5098665;28;20214;-78
2024/02/28 07:32:37;;;;;;;40.83;19.17;;;2.10;1.00;;;;;;5097438;28;20200;-77
2024/02/28 07:35:05;;;;;;;38.33;19.60;;;2.10;1.00;;;;;;5096740;28;20201;-78
2024/02/28 07:37:31;;;;;;;40.73;20.07;;;2.20;1.00;;;;;;5097889;28;20201;-77
2024/02/28 07:39:58;;;;;;;37.57;18.40;;;2.20;1.00;;;;;;5097048;28;20689;-77
2024/02/28 07:42:25;;;;;;;43.33;21.20;;;2.20;99.90;;;;;;5096684;28;20233;-78
2024/02/28 07:44:56;;;;;;;38.83;20.30;;;2.10;1.00;;;;;;5096556;28;20205;-77
2024/02/28 07:47:23;;;;;;;40.60;19.80;;;2.30;1.00;;;;;;5097397;28;20295;-77
2024/02/28 07:49:53;;;;;;;43.80;20.07;;;2.40;1.00;;;;;;5107150;28;20586;-77
2024/02/28 07:52:20;;;;;;;43.23;20.30;;;2.60;99.90;;;;;;5097152;28;20201;-77
2024/02/28 07:54:47;;;;;;;44.20;21.33;;;2.50;99.90;;;;;;5096060;28;20260;-77
2024/02/28 07:57:15;;;;;;;42.23;20.50;;;2.60;1.00;;;;;;5096961;28;20288;-77
2024/02/28 07:59:42;;;;;;;47.10;22.50;;;2.70;99.90;;;;;;5096212;28;20234;-77
2024/02/28 08:02:09;;;;;;;41.77;20.50;;;2.90;99.90;;;;;;5096822;28;20198;-76
2024/02/28 08:04:36;;;;;;;42.77;20.47;;;2.90;99.90;;;;;;5110876;28;20288;-77
2024/02/28 08:07:05;;;;;;;45.70;19.90;;;3.00;97.50;;;;;;5110079;28;20232;-78
2024/02/28 08:09:31;;;;;;;45.70;21.87;;;3.00;99.90;;;;;;5106542;28;20284;-78
2024/02/28 08:11:58;;;;;;;45.53;20.60;;;3.00;99.90;;;;;;5112744;28;20204;-78
2024/02/28 08:14:25;;;;;;;44.33;21.87;;;3.10;74.30;;;;;;5114608;28;20307;-77
2024/02/28 08:16:52;;;;;;;51.00;21.90;;;3.20;5.00;;;;;;5099751;28;20212;-77
2024/02/28 08:19:19;;;;;;;51.63;23.13;;;3.20;99.90;;;;;;5097245;28;20222;-77
2024/02/28 08:21:46;;;;;;;50.07;22.50;;;3.30;99.90;;;;;;5102503;28;20205;-77
2024/02/28 08:24:14;;;;;;;54.67;23.10;;;3.30;99.90;;;;;;5094972;28;20208;-77
2024/02/28 08:26:42;;;;;;;53.27;22.93;;;3.20;99.90;;;;;;5094545;28;20296;-76
2024/02/28 08:29:08;;;;;;;50.70;22.83;;;3.20;99.90;;;;;;5097439;28;20559;-77
2024/02/28 08:31:41;;;;;;;50.40;23.30;;;3.20;99.90;;;;;;5095747;28;20660;-77
2024/02/28 08:34:08;;;;;;;49.73;22.37;;;3.30;99.90;;;;;;5100187;28;20205;-78
2024/02/28 08:36:36;;;;;;;50.37;21.97;;;3.20;99.90;;;;;;5095546;28;20265;-78
2024/02/28 08:39:04;;;;;;;49.40;22.53;;;3.20;99.90;;;;;;5095691;28;20225;-78
2024/02/28 08:41:33;;;;;;;50.30;22.93;;;3.20;99.90;;;;;;5095097;28;20573;-77
2024/02/28 08:44:00;;;;;;;49.63;22.20;;;3.20;1.00;;;;;;5094933;28;20209;-77
2024/02/28 08:46:27;;;;;;;50.50;22.33;;;3.20;1.00;;;;;;5099771;28;20216;-77
2024/02/28 08:48:55;;;;;;;50.53;22.50;;;3.20;99.90;;;;;;5094798;28;20232;-78
2024/02/28 08:51:21;;;;;;;48.60;21.23;;;3.20;99.90;;;;;;5095467;28;20197;-77
2024/02/28 08:53:48;;;;;;;47.00;21.80;;;3.30;99.90;;;;;;5105748;28;20204;-77
2024/02/28 08:56:15;;;;;;;50.07;22.23;;;3.40;99.90;;;;;;5099750;28;20212;-77
2024/02/28 08:58:44;;;;;;;49.17;21.77;;;3.50;1.00;;;;;;5095759;28;20292;-78
2024/02/28 09:01:15;;;;;;;45.60;21.43;;;3.50;1.00;;;;;;5106519;28;20208;-79
2024/02/28 09:03:42;;;;;;;40.73;19.73;;;3.50;1.00;;;;;;5108207;28;20208;-80
2024/02/28 09:06:08;;;;;;;49.53;22.13;;;3.40;99.90;;;;;;5109336;28;20227;-79
2024/02/28 09:08:35;;;;;;;46.43;21.27;;;3.50;99.90;;;;;;5105096;28;20210;-79
2024/02/28 09:11:02;;;;;;;46.93;21.77;;;3.60;99.90;;;;;;5108177;28;20312;-78
2024/02/28 09:13:30;;;;;;;47.23;20.87;;;3.60;31.90;;;;;;5111207;28;20714;-80
2024/02/28 09:15:58;;;;;;;46.90;21.47;;;3.90;99.90;;;;;;5112123;28;20200;-79
2024/02/28 09:18:25;;;;;;;44.23;20.50;;;4.00;1.00;;;;;;5102214;28;20197;-79
2024/02/28 09:20:51;;;;;;;41.67;19.60;;;4.00;1.00;;;;;;5094249;28;20232;-78
2024/02/28 09:23:19;;;;;;;46.37;21.87;;;4.00;1.00;;;;;;5101487;28;20202;-79
2024/02/28 09:25:46;;;;;;;45.60;20.90;;;4.10;1.00;;;;;;5095555;28;20202;-80
2024/02/28 09:28:15;;;;;;;42.77;21.17;;;4.00;99.90;;;;;;5095875;28;20237;-79
2024/02/28 09:30:42;;;;;;;44.43;18.77;;;4.00;99.90;;;;;;5096692;28;20233;-80
2024/02/28 09:33:10;;;;;;;46.17;21.90;;;3.90;99.90;;;;;;5097557;28;20656;-78
2024/02/28 09:35:37;;;;;;;49.43;20.70;;;3.90;1.00;;;;;;5099799;28;20724;-80
2024/02/28 09:38:04;;;;;;;48.03;20.03;;;3.90;99.90;;;;;;5101024;28;20200;-79
2024/02/28 09:40:31;;;;;;;47.40;20.17;;;3.90;1.00;;;;;;5103099;28;20671;-77
2024/02/28 09:43:02;;;;;;;48.07;21.97;;;3.90;1.00;;;;;;5107818;28;20224;-78
2024/02/28 09:45:31;;;;;;;45.73;20.70;;;4.00;99.90;;;;;;5105609;27;20231;-78
2024/02/28 09:47:58;;;;;;;47.70;21.80;;;4.10;99.90;;;;;;5105073;28;20219;-80
2024/02/28 09:50:27;;;;;;;42.63;19.97;;;4.20;99.90;;;;;;5108690;28;20300;-79
2024/02/28 09:52:54;;;;;;;44.77;19.77;;;4.40;99.90;;;;;;5106042;28;20198;-79
2024/02/28 09:55:21;;;;;;;43.83;19.83;;;4.40;1.00;;;;;;5100424;28;20633;-79
2024/02/28 09:57:49;;;;;;;44.10;20.43;;;4.30;1.00;;;;;;5105227;28;20285;-79
2024/02/28 10:00:19;;;;;;;46.67;21.60;;;4.30;1.00;;;;;;5110541;28;20227;-79
2024/02/28 10:02:48;;;;;;;45.00;20.50;;;4.50;1.00;;;;;;5111707;28;20197;-78
2024/02/28 10:05:15;;;;;;;43.80;21.57;;;4.60;1.00;;;;;;5111557;28;20208;-80
2024/02/28 10:07:43;;;;;;;44.90;20.87;;;4.60;1.00;;;;;;5107184;28;20640;-79
2024/02/28 10:10:11;;;;;;;48.40;20.63;;;4.60;99.90;;;;;;5112423;28;20209;-78
2024/02/28 10:12:41;;;;;;;45.93;21.10;;;4.70;99.90;;;;;;5115084;28;20201;-79
2024/02/28 10:15:09;;;;;;;41.60;20.07;;;4.80;99.90;;;;;;5106390;28;20664;-79
2024/02/28 10:17:36;;;;;;;45.27;20.70;;;4.70;99.90;;;;;;5106675;28;20206;-81
2024/02/28 10:20:04;;;;;;;44.63;22.10;;;4.70;99.90;;;;;;5100647;28;20235;-81
2024/02/28 10:22:35;;;;;;;44.33;21.07;;;4.90;99.90;;;;;;5105838;28;20204;-79
2024/02/28 10:25:04;;;;;;;48.83;23.27;;;5.00;1.00;;;;;;5105570;28;20605;-80
2024/02/28 10:27:34;;;;;;;42.17;19.80;;;5.10;1.00;;;;;;5106560;28;20202;-80
2024/02/28 10:30:04;;;;;;;41.60;20.67;;;5.00;1.00;;;;;;5100832;28;20213;-80
2024/02/28 10:32:31;;;;;;;44.10;20.73;;;5.20;1.00;;;;;;5113386;28;20205;-80
2024/02/28 10:34:59;;;;;;;43.03;20.30;;;5.20;1.00;;;;;;5100768;28;20690;-80
2024/02/28 10:37:30;;;;;;;41.60;20.03;;;5.20;1.00;;;;;;5104873;28;20201;-80
2024/02/28 10:39:59;;;;;;;45.20;21.80;;;5.20;1.00;;;;;;5110263;27;20243;-81
2024/02/28 10:42:31;;;;;;;42.57;19.90;;;5.30;1.00;;;;;;5106367;28;20288;-80
2024/02/28 10:44:59;;;;;;;45.53;22.73;;;5.40;1.00;;;;;;5104536;28;20202;-79
2024/02/28 10:47:29;;;;;;;42.83;21.77;;;5.50;1.00;;;;;;5108586;28;20284;-80
2024/02/28 10:49:56;;;;;;;45.97;21.77;;;5.60;1.00;;;;;;5105941;28;20720;-79
2024/02/28 10:52:24;;;;;;;44.27;21.87;;;5.70;1.00;;;;;;5103610;28;20260;-80
2024/02/28 10:54:55;;;;;;;43.70;21.30;;;5.90;99.90;;;;;;5107540;28;20288;-80
2024/02/28 10:57:25;;;;;;;40.30;21.53;;;5.90;99.90;;;;;;5107731;28;20213;-81
2024/02/28 10:59:54;;;;;;;42.77;21.77;;;6.00;99.90;;;;;;5107648;28;20224;-80
2024/02/28 11:02:22;;;;;;;42.77;21.30;;;6.10;99.90;;;;;;5113133;28;20197;-79
2024/02/28 11:04:48;;;;;;;42.97;22.67;;;6.00;1.00;;;;;;5107322;28;20292;-80
2024/02/28 11:07:21;;;;;;;44.23;22.60;;;6.00;1.00;;;;;;5112894;28;20306;-81
2024/02/28 11:09:48;;;;;;;41.23;20.63;;;6.00;1.00;;;;;;5113121;28;20221;-79
2024/02/28 11:12:27;;;;;;;42.10;21.40;;;5.90;1.00;;;;;;5114922;28;20297;-79
2024/02/28 11:14:59;;;;;;;42.60;22.23;;;5.80;1.00;;;;;;5101224;28;20194;-81
2024/02/28 11:17:27;;;;;;;41.93;21.83;;;5.90;84.60;;;;;;5098928;28;20209;-80
2024/02/28 11:19:55;;;;;;;46.37;22.60;;;5.90;1.00;;;;;;5105561;28;20237;-79
2024/02/28 11:22:22;;;;;;;43.43;22.67;;;5.90;1.00;;;;;;5100592;28;20635;-79
2024/02/28 11:24:49;;;;;;;42.63;20.93;;;6.00;1.00;;;;;;5102410;28;20691;-79
2024/02/28 11:27:16;;;;;;;41.57;21.37;;;6.00;1.00;;;;;;5097717;28;20330;-80
2024/02/28 11:29:46;;;;;;;42.87;21.80;;;6.10;1.00;;;;;;5098597;28;20217;-79
2024/02/28 11:32:15;;;;;;;45.43;23.10;;;6.20;1.00;;;;;;5106033;28;20210;-79
2024/02/28 11:34:44;;;;;;;44.63;22.73;;;6.20;1.00;;;;;;5100331;28;20632;-79
2024/02/28 11:37:11;;;;;;;44.90;22.50;;;6.20;1.00;;;;;;5108308;28;20230;-80
2024/02/28 11:39:38;;;;;;;40.60;21.73;;;6.30;1.00;;;;;;5103280;28;20243;-79
2024/02/28 11:42:13;;;;;;;43.40;22.60;;;6.30;1.00;;;;;;5108898;28;20247;-78
2024/02/28 11:44:40;;;;;;;48.60;25.50;;;6.20;1.00;;;;;;5103160;28;20237;-78
2024/02/28 11:47:09;;;;;;;45.70;23.27;;;6.00;1.00;;;;;;5106916;28;20653;-80
2024/02/28 11:49:37;;;;;;;44.27;22.13;;;6.20;1.00;;;;;;5103784;28;20259;-80
2024/02/28 11:52:04;;;;;;;43.27;22.53;;;6.30;1.00;;;;;;5103926;28;20269;-80
2024/02/28 11:54:31;;;;;;;42.60;22.40;;;6.30;1.00;;;;;;5105532;28;20764;-79
2024/02/28 11:56:58;;;;;;;47.17;24.90;;;6.40;1.00;;;;;;5107184;28;20227;-79
2024/02/28 11:59:26;;;;;;;45.87;24.90;;;6.50;1.00;;;;;;5104359;28;20307;-80
2024/02/28 12:01:55;;;;;;;43.87;23.63;;;6.60;1.00;;;;;;5105418;28;20197;-78
2024/02/28 12:04:24;;;;;;;45.57;22.67;;;6.70;99.90;;;;;;5103486;28;20370;-79
2024/02/28 12:06:52;;;;;;;44.40;23.23;;;6.60;99.90;;;;;;5109178;28;20193;-79
2024/02/28 12:09:19;;;;;;;49.17;25.20;;;6.80;99.90;;;;;;5111063;28;20718;-78
2024/02/28 12:11:47;;;;;;;45.07;23.97;;;6.90;99.90;;;;;;5110911;28;20293;-80
2024/02/28 12:14:14;;;;;;;43.93;23.23;;;6.80;99.90;;;;;;5111586;28;20194;-79
2024/02/28 12:16:41;;;;;;;45.97;25.53;;;6.90;99.90;;;;;;5113200;28;20284;-79
2024/02/28 12:19:09;;;;;;;42.87;23.37;;;6.70;99.90;;;;;;5105212;28;20219;-80
2024/02/28 12:21:37;;;;;;;44.50;24.00;;;6.70;99.90;;;;;;5095561;28;20213;-79
2024/02/28 12:24:06;;;;;;;46.30;23.83;;;6.80;99.90;;;;;;5094304;28;20204;-79
2024/02/28 12:26:32;;;;;;;48.47;25.37;;;6.90;99.90;;;;;;5095321;28;20198;-78
2024/02/28 12:28:59;;;;;;;44.27;24.67;;;6.70;99.90;;;;;;5103037;28;20224;-78
2024/02/28 12:31:26;;;;;;;46.87;25.17;;;6.80;99.90;;;;;;5096363;28;20312;-78
2024/02/28 12:33:53;;;;;;;46.87;23.90;;;6.90;99.90;;;;;;5096634;28;20224;-79
2024/02/28 12:36:21;;;;;;;44.40;23.07;;;7.20;99.90;;;;;;5100113;28;20202;-80
2024/02/28 12:38:48;;;;;;;44.37;24.63;;;7.40;99.90;;;;;;5098986;28;20296;-80
2024/02/28 12:41:17;;;;;;;48.80;26.50;;;7.50;12.90;;;;;;5101017;28;20296;-79
2024/02/28 12:43:44;;;;;;;44.13;23.97;;;7.60;1.00;;;;;;5102797;28;20212;-80